Time;durP1;ratioP1;P1;durP2;ratioP2;P2;SDS_P1;SDS_P2;PMS_P1;PMS_P2;Temp;Humidity;BMP_temperature;BMP_pressure;BME280_temperature;BME280_humidity;BME280_pressure;Samples;Min_cycle;Max_cycle;Signal;HPM_P1;HPM_P2
2023/01/12 00:01:44;;;;;;;16.70;5.57;;;;;;;10.55;66.00;100897.88;4938744;28;96891;-71
2023/01/12 00:04:12;;;;;;;15.73;5.25;;;;;;;10.55;66.01;100900.50;4929229;28;97040;-71
2023/01/12 00:06:41;;;;;;;14.13;5.10;;;;;;;10.39;66.37;100901.00;4933896;28;99293;-70
2023/01/12 00:09:09;;;;;;;12.93;5.32;;;;;;;10.48;65.70;100907.78;4929868;28;98781;-72
2023/01/12 00:11:37;;;;;;;11.75;5.18;;;;;;;10.60;66.14;100914.44;4936948;28;96778;-72
2023/01/12 00:14:04;;;;;;;13.20;5.68;;;;;;;10.39;66.12;100922.13;4933308;28;97516;-72
2023/01/12 00:16:37;;;;;;;15.32;5.38;;;;;;;10.45;66.65;100913.13;4932979;28;99362;-72
2023/01/12 00:19:09;;;;;;;13.38;4.95;;;;;;;10.60;66.16;100914.44;4936717;28;98804;-70
2023/01/12 00:21:48;;;;;;;18.98;5.47;;;;;;;10.57;66.18;100923.31;4929973;28;97003;-70
2023/01/12 00:24:17;;;;;;;14.00;4.57;;;;;;;10.45;66.65;100912.28;4933422;28;98663;-71
2023/01/12 00:26:43;;;;;;;12.82;5.03;;;;;;;10.33;66.94;100908.25;4936708;28;101716;-70
2023/01/12 00:29:10;;;;;;;12.10;5.20;;;;;;;10.05;67.51;100889.72;4930461;28;98932;-71
2023/01/12 00:31:36;;;;;;;13.93;4.97;;;;;;;10.05;67.61;100889.72;4934739;28;96898;-71
2023/01/12 00:34:03;;;;;;;16.67;5.13;;;;;;;9.86;68.51;100886.78;4933163;28;96955;-71
2023/01/12 00:36:29;;;;;;;13.57;4.63;;;;;;;9.95;68.25;100881.25;4928772;28;97825;-70
2023/01/12 00:38:56;;;;;;;16.55;4.53;;;;;;;10.07;68.10;100880.00;4931879;28;98907;-72
2023/01/12 00:46:49;;;;;;;18.30;4.72;;;;;;;9.97;67.96;100881.22;4932323;28;98017;-70
2023/01/12 00:49:16;;;;;;;12.32;3.33;;;;;;;10.04;67.84;100882.75;4930072;28;101558;-71
2023/01/12 00:51:43;;;;;;;14.73;3.95;;;;;;;10.05;68.16;100879.16;4936003;28;97136;-75
2023/01/12 00:54:09;;;;;;;11.60;4.85;;;;;;;10.13;67.68;100884.22;4936940;28;97491;-71
2023/01/12 00:56:38;;;;;;;17.45;3.88;;;;;;;9.86;68.18;100876.22;4929874;28;100240;-70
2023/01/12 00:59:06;;;;;;;11.40;4.18;;;;;;;10.00;68.61;100879.31;4929184;28;99359;-71
2023/01/12 01:01:33;;;;;;;11.63;3.92;;;;;;;10.10;67.47;100868.47;4926448;28;97202;-71
2023/01/12 01:04:00;;;;;;;9.98;2.95;;;;;;;10.11;67.32;100863.13;4929224;28;97329;-69
2023/01/12 01:06:27;;;;;;;11.70;3.72;;;;;;;9.78;68.51;100867.69;4938350;28;99595;-71
2023/01/12 01:08:53;;;;;;;20.33;3.50;;;;;;;10.00;67.96;100859.97;4937301;28;99010;-72
2023/01/12 01:11:20;;;;;;;14.98;3.40;;;;;;;10.17;66.81;100856.84;4933121;28;96840;-70
2023/01/12 01:13:48;;;;;;;12.48;3.45;;;;;;;10.13;66.91;100871.88;4928625;28;97484;-71
2023/01/12 01:16:17;;;;;;;12.93;2.58;;;;;;;10.13;66.85;100873.66;4934958;28;98838;-71
2023/01/12 01:18:43;;;;;;;11.88;3.05;;;;;;;9.94;67.26;100871.59;4928646;28;99407;-71
2023/01/12 01:21:11;;;;;;;15.73;2.97;;;;;;;10.11;67.16;100875.50;4938775;28;97132;-72
2023/01/12 01:23:38;;;;;;;16.33;3.60;;;;;;;10.11;66.74;100870.22;4930176;28;97480;-70
2023/01/12 01:26:07;;;;;;;17.17;2.80;;;;;;;10.06;66.56;100872.97;4932389;28;102193;-70
2023/01/12 01:28:34;;;;;;;13.00;2.88;;;;;;;10.07;66.53;100865.94;4925486;28;97574;-70
2023/01/12 01:31:05;;;;;;;11.43;2.53;;;;;;;9.84;67.00;100856.09;4929956;28;97129;-70
2023/01/12 01:33:31;;;;;;;12.75;2.00;;;;;;;9.90;67.08;100843.56;4935032;28;98770;-70
2023/01/12 01:35:58;;;;;;;10.27;2.20;;;;;;;9.87;67.08;100843.66;4929384;28;101588;-72
2023/01/12 01:38:25;;;;;;;15.98;2.90;;;;;;;9.93;66.90;100830.25;4934064;28;98860;-70
2023/01/12 01:40:51;;;;;;;11.40;2.15;;;;;;;9.89;66.76;100828.66;4925306;28;97892;-72
2023/01/12 01:43:20;;;;;;;9.90;2.05;;;;;;;9.86;66.64;100839.28;4935030;28;97350;-71
2023/01/12 01:45:55;;;;;;;12.70;2.20;;;;;;;10.09;66.33;100832.44;4930489;28;99627;-71
2023/01/12 01:48:24;;;;;;;25.13;5.37;;;;;;;10.21;65.60;100834.69;4936100;28;99267;-70
2023/01/12 01:50:56;;;;;;;11.82;1.75;;;;;;;10.15;65.71;100838.38;4928719;28;96832;-70
2023/01/12 01:53:25;;;;;;;9.98;3.15;;;;;;;10.39;64.95;100839.38;4930591;28;97379;-71
2023/01/12 01:55:54;;;;;;;12.20;2.25;;;;;;;10.31;64.97;100830.84;4935205;28;100115;-71
2023/01/12 01:58:25;;;;;;;9.63;1.88;;;;;;;10.10;65.37;100839.44;4930170;28;99093;-71
2023/01/12 02:00:52;;;;;;;14.80;2.22;;;;;;;10.27;65.34;100834.50;4931878;28;96851;-71
2023/01/12 02:03:19;;;;;;;11.35;2.00;;;;;;;10.34;64.91;100836.03;4931025;28;97131;-70
2023/01/12 02:05:48;;;;;;;12.38;2.22;;;;;;;10.36;63.99;100835.06;4932346;28;99249;-71
2023/01/12 02:08:19;;;;;;;8.98;1.95;;;;;;;10.47;64.04;100831.19;4928378;28;98573;-70
2023/01/12 02:10:46;;;;;;;12.75;2.00;;;;;;;10.27;64.79;100824.81;4929269;28;96869;-69
2023/01/12 02:18:52;;;;;;;13.77;2.50;;;;;;;10.64;63.79;100799.75;4925994;28;99068;-71
2023/01/12 02:21:44;;;;;;;13.43;2.30;;;;;;;10.63;63.29;100796.25;4933692;28;96900;-70
2023/01/12 02:24:38;;;;;;;11.07;1.75;;;;;;;10.63;63.20;100801.53;4934304;28;96831;-71
2023/01/12 02:27:31;;;;;;;15.32;1.95;;;;;;;10.70;62.65;100795.13;4932406;28;98665;-70
2023/01/12 02:30:42;;;;;;;11.38;2.22;;;;;;;10.61;63.46;100792.81;4932565;28;101436;-71
2023/01/12 02:33:32;;;;;;;16.00;1.83;;;;;;;10.51;63.61;100796.69;4906139;28;96797;-70
2023/01/12 02:36:06;;;;;;;9.50;2.03;;;;;;;10.52;64.37;100792.25;4930714;28;96978;-70
2023/01/12 02:38:37;;;;;;;13.18;1.60;;;;;;;10.45;64.49;100783.69;4924448;28;98308;-72
2023/01/12 02:41:14;;;;;;;16.23;2.55;;;;;;;10.55;64.64;100778.97;4934694;28;98740;-71
2023/01/12 02:43:42;;;;;;;11.32;1.48;;;;;;;10.36;65.23;100781.38;4933555;28;97229;-70
2023/01/12 02:46:15;;;;;;;10.77;1.70;;;;;;;10.39;64.95;100783.91;4930699;28;97686;-71
2023/01/12 02:48:50;;;;;;;13.13;1.70;;;;;;;10.56;65.18;100776.28;4922054;28;99607;-71
2023/01/12 02:51:22;;;;;;;13.73;2.17;;;;;;;10.51;64.32;100778.19;4925496;28;99229;-71
2023/01/12 02:53:51;;;;;;;11.55;1.67;;;;;;;10.45;65.33;100780.19;4926066;28;98725;-71
2023/01/12 02:56:23;;;;;;;13.35;1.83;;;;;;;10.39;65.20;100762.75;4925906;28;96823;-70
2023/01/12 02:58:53;;;;;;;14.32;2.72;;;;;;;10.32;65.55;100763.88;4927154;28;97818;-70
2023/01/12 03:01:22;;;;;;;9.75;1.83;;;;;;;10.52;65.62;100757.91;4927202;28;98898;-71
2023/01/12 03:03:51;;;;;;;11.27;1.67;;;;;;;10.42;65.79;100754.75;4928225;28;97125;-71
2023/01/12 03:06:18;;;;;;;12.63;1.70;;;;;;;10.45;65.25;100759.91;4943271;28;96899;-72
2023/01/12 03:08:49;;;;;;;11.23;1.65;;;;;;;10.28;65.81;100751.72;4931722;28;97688;-71
2023/01/12 03:11:16;;;;;;;13.30;1.80;;;;;;;10.35;65.55;100748.81;4936794;28;100249;-72
2023/01/12 03:13:48;;;;;;;8.95;1.63;;;;;;;10.32;65.50;100748.91;4932271;28;97567;-70
2023/01/12 03:16:20;;;;;;;9.40;1.35;;;;;;;10.33;66.27;100753.28;4939585;28;97056;-70
2023/01/12 03:18:53;;;;;;;10.00;2.03;;;;;;;10.68;64.58;100756.47;4930197;28;98344;-70
2023/01/12 03:21:27;;;;;;;11.70;1.48;;;;;;;10.54;64.81;100754.31;4932130;28;98933;-70
2023/01/12 03:24:02;;;;;;;14.77;1.60;;;;;;;10.71;64.29;100751.06;4932802;28;96850;-71
2023/01/12 03:26:32;;;;;;;10.80;1.52;;;;;;;10.52;64.29;100750.84;4932162;28;97019;-71
2023/01/12 03:29:09;;;;;;;11.15;1.50;;;;;;;10.51;64.54;100753.53;4921477;28;99440;-71
2023/01/12 03:31:36;;;;;;;9.20;1.63;;;;;;;10.57;64.04;100748.91;4923710;28;98800;-72
2023/01/12 03:34:04;;;;;;;8.20;1.30;;;;;;;10.66;64.09;100739.81;4928536;28;99016;-71
2023/01/12 03:36:42;;;;;;;22.83;3.17;;;;;;;10.62;63.99;100739.06;4924708;28;98668;-71
2023/01/12 03:39:16;;;;;;;8.63;1.60;;;;;;;10.86;63.02;100755.81;4932805;28;97723;-70
2023/01/12 03:41:54;;;;;;;11.27;1.80;;;;;;;10.85;63.48;100747.94;4930659;28;97648;-72
2023/01/12 03:44:29;;;;;;;7.88;1.33;;;;;;;10.87;63.32;100751.38;4927117;28;96727;-72
2023/01/12 03:47:01;;;;;;;7.90;1.52;;;;;;;10.82;63.32;100745.41;4932667;28;96990;-71
2023/01/12 03:49:33;;;;;;;13.27;1.42;;;;;;;10.85;62.74;100737.34;4936916;28;98952;-71
2023/01/12 03:52:02;;;;;;;11.48;1.95;;;;;;;10.69;63.39;100742.34;4936385;28;101368;-71
2023/01/12 03:54:30;;;;;;;11.85;1.73;;;;;;;10.72;63.01;100743.09;4930346;28;96976;-70
2023/01/12 03:56:58;;;;;;;10.63;1.73;;;;;;;10.66;63.37;100738.03;4927265;28;97672;-71
2023/01/12 03:59:24;;;;;;;8.35;1.48;;;;;;;10.89;62.84;100738.97;4936083;28;99323;-71
2023/01/12 04:01:51;;;;;;;9.82;1.73;;;;;;;10.67;63.26;100739.75;4929073;28;99186;-72
2023/01/12 04:04:18;;;;;;;10.65;1.27;;;;;;;10.67;63.43;100738.88;4931401;28;97159;-72
2023/01/12 04:06:46;;;;;;;7.35;1.35;;;;;;;10.67;63.06;100739.75;4926319;28;97175;-70
2023/01/12 04:09:13;;;;;;;12.68;2.38;;;;;;;10.81;63.13;100741.03;4927801;28;99445;-72
2023/01/12 04:14:24;;;;;;;5.70;1.15;;;;;;;10.89;62.64;100734.56;4938340;28;97062;-71
2023/01/12 04:16:51;;;;;;;9.48;1.38;;;;;;;10.84;62.46;100725.91;4928997;28;98567;-70
2023/01/12 04:19:18;;;;;;;17.58;1.80;;;;;;;10.91;62.32;100708.03;4934768;28;98344;-70
2023/01/12 04:24:30;;;;;;;12.38;1.92;;;;;;;11.00;61.92;100715.63;4934289;28;97493;-71
2023/01/12 04:26:57;;;;;;;6.65;1.40;;;;;;;10.93;62.31;100717.66;4929688;28;96989;-71
2023/01/12 04:29:23;;;;;;;11.63;1.60;;;;;;;10.85;62.06;100710.91;4932484;28;101491;-72
2023/01/12 04:31:50;;;;;;;8.48;1.67;;;;;;;10.83;62.48;100710.97;4936458;28;99213;-70
2023/01/12 04:34:16;;;;;;;8.25;1.73;;;;;;;10.94;62.32;100700.00;4927783;28;98972;-71
2023/01/12 04:36:42;;;;;;;9.65;1.38;;;;;;;11.09;61.70;100712.66;4932464;28;97154;-72
2023/01/12 04:39:10;;;;;;;8.10;1.20;;;;;;;10.85;62.09;100703.84;4929962;28;98927;-72
2023/01/12 04:41:36;;;;;;;9.88;1.02;;;;;;;11.04;62.13;100696.09;4934358;28;99457;-70
2023/01/12 04:44:03;;;;;;;8.60;1.60;;;;;;;11.03;61.81;100694.34;4931801;28;97566;-70
2023/01/12 04:46:30;;;;;;;11.50;2.58;;;;;;;11.23;60.94;100699.75;4933464;28;96821;-73
2023/01/12 04:48:56;;;;;;;7.95;1.45;;;;;;;11.05;61.49;100688.09;4938397;28;99376;-71
2023/01/12 04:51:22;;;;;;;9.52;2.00;;;;;;;10.98;61.63;100681.31;4930873;28;99402;-72
2023/01/12 04:53:50;;;;;;;10.82;2.28;;;;;;;11.14;61.06;100681.59;4936981;28;96760;-71
2023/01/12 04:56:18;;;;;;;8.10;1.60;;;;;;;11.21;60.76;100677.81;4935715;28;96806;-70
2023/01/12 04:58:44;;;;;;;8.43;1.20;;;;;;;11.24;60.84;100676.81;4945625;28;97897;-71
2023/01/12 05:01:12;;;;;;;8.25;1.35;;;;;;;11.14;60.96;100681.59;4929150;28;101634;-71
2023/01/12 05:03:39;;;;;;;7.72;1.45;;;;;;;11.18;60.90;100670.84;4934324;28;97468;-72
2023/01/12 05:06:06;;;;;;;7.88;1.10;;;;;;;11.24;60.78;100690.91;4932437;28;97415;-72
2023/01/12 05:11:20;;;;;;;10.07;1.50;;;;;;;11.21;60.61;100680.44;4907941;28;97838;-71
2023/01/12 05:13:46;;;;;;;9.57;1.58;;;;;;;11.18;60.71;100670.84;4933691;28;98759;-70
2023/01/12 05:16:16;;;;;;;7.90;1.45;;;;;;;11.41;60.39;100664.66;4938627;28;97014;-71
2023/01/12 05:18:43;;;;;;;9.23;1.20;;;;;;;11.24;60.41;100668.88;4927911;28;99212;-71
2023/01/12 05:21:10;;;;;;;7.55;1.10;;;;;;;11.05;60.83;100658.16;4942627;28;100035;-70
2023/01/12 05:23:36;;;;;;;8.02;1.13;;;;;;;11.05;61.68;100655.50;4938737;28;96843;-71
2023/01/12 05:26:05;;;;;;;10.40;1.85;;;;;;;10.99;61.33;100659.25;4927604;28;97296;-71
2023/01/12 05:28:33;;;;;;;7.78;1.25;;;;;;;11.10;60.59;100648.25;4933293;28;98908;-71
2023/01/12 05:31:03;;;;;;;10.77;2.03;;;;;;;11.42;60.41;100660.22;4930108;28;98925;-72
2023/01/12 05:33:30;;;;;;;13.38;1.65;;;;;;;11.29;60.28;100651.88;4927739;28;101704;-71
2023/01/12 05:35:57;;;;;;;9.00;1.83;;;;;;;11.41;60.05;100655.84;4927824;28;96981;-73
2023/01/12 05:38:23;;;;;;;8.10;1.38;;;;;;;11.37;60.23;100660.38;4924170;28;99221;-73
2023/01/12 05:40:50;;;;;;;7.63;1.17;;;;;;;11.40;59.67;100649.69;4933353;28;99284;-71
2023/01/12 05:46:03;;;;;;;12.70;1.70;;;;;;;11.49;59.73;100651.94;4928337;28;96831;-73
2023/01/12 05:48:31;;;;;;;7.68;1.52;;;;;;;11.59;58.86;100653.31;4927338;28;98895;-73
2023/01/12 05:50:59;;;;;;;6.72;1.23;;;;;;;11.40;59.79;100652.34;4929754;28;98445;-71
2023/01/12 05:53:26;;;;;;;9.18;1.55;;;;;;;11.50;59.67;100651.03;4936650;28;96825;-71
2023/01/12 05:55:52;;;;;;;10.82;1.50;;;;;;;11.56;59.65;100652.56;4938430;28;96805;-71
2023/01/12 05:58:19;;;;;;;7.45;1.52;;;;;;;11.41;59.58;100643.50;4932526;28;98733;-71
2023/01/12 06:00:45;;;;;;;10.75;1.10;;;;;;;11.65;58.93;100641.63;4927898;28;98629;-71
2023/01/12 06:03:13;;;;;;;10.32;1.90;;;;;;;11.58;58.79;100651.59;4935658;28;97206;-72
2023/01/12 06:05:40;;;;;;;8.38;1.25;;;;;;;11.59;59.18;100655.97;4924702;28;96893;-71
2023/01/12 06:08:07;;;;;;;10.77;1.20;;;;;;;11.67;59.11;100657.44;4931583;28;100937;-71
2023/01/12 06:10:35;;;;;;;7.35;1.25;;;;;;;11.72;58.94;100655.44;4923186;28;97521;-72
2023/01/12 06:15:46;;;;;;;8.25;1.40;;;;;;;11.56;59.52;100649.91;4934202;28;97062;-71
2023/01/12 06:18:14;;;;;;;9.57;1.67;;;;;;;11.52;59.34;100649.19;4936186;28;99229;-71
2023/01/12 06:20:40;;;;;;;8.95;1.40;;;;;;;11.63;59.23;100651.38;4942300;28;98812;-72
2023/01/12 06:23:06;;;;;;;11.68;1.42;;;;;;;11.55;59.47;100651.69;4932978;28;98674;-72
2023/01/12 06:25:33;;;;;;;8.15;1.50;;;;;;;11.50;59.79;100653.69;4933564;28;98802;-72
2023/01/12 06:27:59;;;;;;;8.48;1.20;;;;;;;11.45;59.81;100650.38;4933326;28;99097;-70
2023/01/12 06:30:25;;;;;;;11.25;1.40;;;;;;;11.72;59.15;100658.09;4931779;28;99893;-71
2023/01/12 06:32:52;;;;;;;7.57;1.25;;;;;;;11.62;59.05;100640.88;4925533;28;96818;-70
2023/01/12 06:35:20;;;;;;;10.13;1.20;;;;;;;11.71;58.69;100649.28;4923027;28;97466;-72
2023/01/12 06:37:46;;;;;;;8.30;1.27;;;;;;;11.81;58.54;100648.03;4924777;28;98740;-72
2023/01/12 06:40:13;;;;;;;12.55;1.40;;;;;;;11.52;59.63;100648.34;4928197;28;99452;-71
2023/01/12 06:42:40;;;;;;;8.55;1.20;;;;;;;11.57;59.15;100636.63;4932130;28;97727;-71
2023/01/12 06:45:08;;;;;;;15.60;2.03;;;;;;;11.66;59.11;100637.19;4931104;28;96887;-72
2023/01/12 06:47:43;;;;;;;8.15;1.25;;;;;;;11.41;59.73;100637.34;4928564;28;98903;-71
2023/01/12 06:50:11;;;;;;;9.30;1.43;;;;;;;11.46;59.52;100630.06;4932666;28;98931;-71
2023/01/12 06:52:38;;;;;;;9.10;1.30;;;;;;;11.38;60.12;100627.72;4932196;28;97379;-72
2023/01/12 06:55:05;;;;;;;16.80;1.88;;;;;;;11.50;59.61;100627.22;4933538;28;97076;-71
2023/01/12 06:57:32;;;;;;;9.93;1.40;;;;;;;11.73;59.14;100628.94;4927588;28;99113;-71
2023/01/12 06:59:58;;;;;;;8.45;1.13;;;;;;;11.72;59.17;100628.97;4934417;28;99044;-71
2023/01/12 07:02:24;;;;;;;10.07;1.52;;;;;;;11.56;59.98;100626.97;4936901;28;97077;-71
2023/01/12 07:04:51;;;;;;;6.38;1.27;;;;;;;11.48;59.72;100623.78;4934654;28;96924;-72
2023/01/12 07:07:18;;;;;;;12.25;1.40;;;;;;;11.56;60.16;100631.38;4928007;28;99440;-71
2023/01/12 07:09:45;;;;;;;7.20;1.40;;;;;;;11.74;59.39;100629.81;4932883;28;99007;-71
2023/01/12 07:12:12;;;;;;;10.73;1.40;;;;;;;11.70;59.55;100626.38;4927080;28;96833;-71
2023/01/12 07:14:38;;;;;;;16.27;1.80;;;;;;;11.85;58.61;100627.56;4929960;28;97651;-71
2023/01/12 07:17:04;;;;;;;13.18;1.50;;;;;;;11.70;59.15;100614.94;4924971;28;99126;-69
2023/01/12 07:19:31;;;;;;;10.93;1.45;;;;;;;11.81;59.09;100615.41;4931893;28;101704;-74
2023/01/12 07:21:57;;;;;;;11.38;1.30;;;;;;;11.77;59.13;100617.31;4930028;28;96999;-75
2023/01/12 07:24:24;;;;;;;14.93;1.50;;;;;;;11.87;59.06;100612.50;4934359;28;97254;-71
2023/01/12 07:26:52;;;;;;;9.57;1.25;;;;;;;11.72;59.09;100606.03;4932485;28;98954;-71
2023/01/12 07:29:19;;;;;;;9.40;1.55;;;;;;;11.72;59.33;100595.44;4931969;28;99342;-71
2023/01/12 07:31:47;;;;;;;13.45;2.15;;;;;;;12.02;58.65;100603.88;4936200;28;97150;-72
2023/01/12 07:34:14;;;;;;;12.13;1.80;;;;;;;12.06;58.35;100601.97;4934529;28;99100;-71
2023/01/12 07:36:40;;;;;;;8.82;1.58;;;;;;;12.12;58.30;100602.56;4930920;28;99458;-72
2023/01/12 07:39:07;;;;;;;9.93;1.90;;;;;;;12.08;58.03;100593.00;4932383;28;100888;-71
2023/01/12 07:44:19;;;;;;;10.48;1.90;;;;;;;11.92;58.80;100587.53;4929535;28;97194;-72
2023/01/12 07:46:45;;;;;;;11.98;1.63;;;;;;;11.98;58.74;100576.66;4943430;28;99022;-72
2023/01/12 07:49:12;;;;;;;11.27;1.40;;;;;;;12.02;58.42;100580.03;4936225;28;98830;-71
2023/01/12 07:51:38;;;;;;;7.25;1.63;;;;;;;12.11;58.23;100578.78;4932319;28;97084;-72
2023/01/12 07:54:05;;;;;;;10.75;1.40;;;;;;;11.87;59.00;100576.28;4935752;28;96957;-73
2023/01/12 07:56:31;;;;;;;6.63;1.25;;;;;;;11.86;59.27;100579.84;4932092;28;99143;-72
2023/01/12 07:58:57;;;;;;;7.38;1.40;;;;;;;12.12;58.70;100576.06;4929509;28;97511;-71
2023/01/12 08:01:25;;;;;;;8.55;1.20;;;;;;;12.21;58.00;100577.41;4938684;28;97393;-71
2023/01/12 08:03:51;;;;;;;8.00;1.55;;;;;;;11.93;58.74;100572.50;4934355;28;97579;-73
2023/01/12 08:06:18;;;;;;;11.05;1.60;;;;;;;11.95;58.91;100566.19;4939526;28;99543;-72
2023/01/12 08:08:44;;;;;;;7.95;1.40;;;;;;;11.96;58.96;100561.75;4928919;28;99035;-73
2023/01/12 08:11:11;;;;;;;5.95;1.20;;;;;;;12.12;58.48;100560.16;4939783;28;96820;-72
2023/01/12 08:13:39;;;;;;;7.70;1.48;;;;;;;11.76;59.39;100575.00;4927109;28;96864;-72
2023/01/12 08:16:13;;;;;;;8.50;1.42;;;;;;;11.94;59.25;100553.06;4931799;28;99711;-73
2023/01/12 08:18:46;;;;;;;11.90;1.77;;;;;;;12.17;58.31;100549.34;4938989;28;98005;-73
2023/01/12 08:21:17;;;;;;;9.75;1.50;;;;;;;12.03;58.57;100542.03;4932059;28;97154;-73
2023/01/12 08:23:49;;;;;;;10.75;1.48;;;;;;;12.13;58.59;100548.66;4924970;28;97136;-72
2023/01/12 08:26:19;;;;;;;5.93;1.30;;;;;;;12.26;57.76;100555.13;4927789;28;99557;-72
2023/01/12 08:28:51;;;;;;;9.98;1.52;;;;;;;12.29;58.03;100549.66;4934071;28;101444;-72
2023/01/12 08:31:19;;;;;;;5.53;1.10;;;;;;;12.17;58.28;100552.00;4929045;28;97124;-72
2023/01/12 08:33:47;;;;;;;10.13;1.60;;;;;;;12.18;58.39;100551.94;4939975;28;96739;-72
2023/01/12 08:36:16;;;;;;;7.43;1.08;;;;;;;12.23;57.86;100544.66;4938269;28;98782;-73
2023/01/12 08:38:43;;;;;;;10.63;1.17;;;;;;;12.41;57.98;100539.41;4935966;28;98818;-72
2023/01/12 08:44:02;;;;;;;9.02;1.45;;;;;;;12.41;57.68;100540.28;4915456;28;97280;-73
2023/01/12 08:46:29;;;;;;;5.10;1.00;;;;;;;12.14;58.20;100537.09;4932670;28;99399;-73
2023/01/12 08:48:57;;;;;;;4.78;0.95;;;;;;;12.35;57.86;100527.31;4926937;28;98648;-73
2023/01/12 08:51:23;;;;;;;6.25;0.80;;;;;;;12.47;57.73;100524.09;4932139;28;97124;-72
2023/01/12 08:53:50;;;;;;;8.35;1.30;;;;;;;12.35;57.58;100522.88;4926848;28;97257;-72
2023/01/12 08:56:16;;;;;;;5.00;0.95;;;;;;;12.24;58.28;100525.19;4930103;28;99118;-73
2023/01/12 08:58:43;;;;;;;11.32;2.90;;;;;;;12.26;58.27;100523.31;4930573;28;99342;-73
2023/01/12 09:01:12;;;;;;;6.80;1.20;;;;;;;12.36;57.79;100514.00;4930250;28;96995;-72
2023/01/12 09:03:40;;;;;;;6.63;1.10;;;;;;;12.44;57.63;100510.16;4927895;28;96954;-73
2023/01/12 09:06:12;;;;;;;7.55;1.30;;;;;;;12.59;57.31;100509.44;4936021;28;97693;-72
2023/01/12 09:08:38;;;;;;;6.60;1.00;;;;;;;12.31;57.97;100492.19;4934957;28;99130;-73
2023/01/12 09:11:05;;;;;;;5.38;1.02;;;;;;;12.39;57.63;100499.78;4933334;28;96780;-72
2023/01/12 09:13:34;;;;;;;5.43;0.98;;;;;;;12.63;57.34;100498.59;4935815;28;96858;-72
2023/01/12 09:16:05;;;;;;;9.00;1.25;;;;;;;12.67;56.71;100507.25;4931637;28;98638;-72
2023/01/12 09:18:32;;;;;;;9.98;1.20;;;;;;;12.48;56.98;100501.09;4934990;28;98826;-71
2023/01/12 09:21:03;;;;;;;7.28;1.58;;;;;;;12.52;56.93;100494.75;4934178;28;98904;-72
2023/01/12 09:23:31;;;;;;;8.10;0.90;;;;;;;12.56;57.00;100491.88;4939582;28;97654;-71
2023/01/12 09:26:02;;;;;;;6.15;1.23;;;;;;;12.56;56.88;100483.06;4926821;28;98956;-72
2023/01/12 09:28:30;;;;;;;4.70;1.20;;;;;;;12.61;57.03;100481.03;4925926;28;101402;-72
2023/01/12 09:31:00;;;;;;;7.85;1.42;;;;;;;12.55;57.02;100481.34;4936165;28;97360;-73
2023/01/12 09:33:26;;;;;;;9.40;1.38;;;;;;;12.51;56.77;100479.78;4936883;28;97157;-73
2023/01/12 09:35:53;;;;;;;5.38;1.33;;;;;;;12.80;56.31;100473.09;4934560;28;101438;-72
2023/01/12 09:38:19;;;;;;;3.83;1.17;;;;;;;12.60;56.56;100476.69;4931912;28;98940;-72
2023/01/12 09:40:47;;;;;;;2.60;0.88;;;;;;;12.84;56.41;100486.09;4937786;28;98338;-73
2023/01/12 09:48:44;;;;;;;7.82;2.00;;;;;;;13.00;55.75;100457.88;4930314;28;97700;-73
2023/01/12 09:51:18;;;;;;;7.82;1.05;;;;;;;12.55;56.42;100452.19;4928455;28;96831;-72
2023/01/12 09:53:45;;;;;;;9.43;1.13;;;;;;;12.78;56.43;100451.94;4937302;28;96986;-72
2023/01/12 09:56:21;;;;;;;5.53;1.10;;;;;;;12.83;55.91;100441.09;4931806;28;99051;-72
2023/01/12 09:59:04;;;;;;;8.70;1.25;;;;;;;12.95;55.51;100446.66;4937698;28;98792;-72
2023/01/12 10:01:31;;;;;;;5.35;1.25;;;;;;;13.07;55.18;100453.13;4938943;28;96780;-72
2023/01/12 10:04:00;;;;;;;10.65;1.50;;;;;;;13.11;54.92;100437.00;4929957;28;97378;-72
2023/01/12 10:06:26;;;;;;;9.63;1.73;;;;;;;13.18;55.13;100444.69;4934846;28;99754;-73
2023/01/12 10:08:56;;;;;;;7.80;1.00;;;;;;;12.77;55.90;100429.88;4932023;28;99119;-73
2023/01/12 10:11:32;;;;;;;8.45;1.50;;;;;;;13.11;55.42;100425.53;4936038;28;97166;-72
2023/01/12 10:14:14;;;;;;;12.05;1.63;;;;;;;12.71;55.80;100419.56;4931820;28;97838;-72
2023/01/12 10:16:54;;;;;;;8.60;1.60;;;;;;;12.88;55.79;100421.38;4927754;28;98425;-74
2023/01/12 10:19:27;;;;;;;7.93;1.33;;;;;;;13.14;54.82;100412.97;4933335;28;98860;-73
2023/01/12 10:21:54;;;;;;;7.13;1.40;;;;;;;13.34;54.58;100413.75;4938193;28;97573;-72
2023/01/12 10:24:22;;;;;;;7.25;1.15;;;;;;;13.62;53.76;100419.34;4936685;28;97249;-72
2023/01/12 10:26:59;;;;;;;6.50;1.63;;;;;;;13.45;53.94;100422.03;4936165;28;99114;-72
2023/01/12 10:29:26;;;;;;;3.47;1.08;;;;;;;13.28;54.46;100406.97;4929233;28;101609;-74
2023/01/12 10:31:53;;;;;;;7.20;1.20;;;;;;;13.50;53.99;100409.38;4933386;28;97071;-71
2023/01/12 10:34:19;;;;;;;5.65;1.23;;;;;;;13.47;53.66;100399.75;4928804;28;96835;-72
2023/01/12 10:36:48;;;;;;;7.80;0.93;;;;;;;13.49;53.64;100405.84;4923866;28;98849;-72
2023/01/12 10:39:30;;;;;;;11.30;1.58;;;;;;;13.21;54.56;100391.44;4923817;28;100630;-72
2023/01/12 10:45:17;;;;;;;6.03;1.45;;;;;;;13.26;54.60;100389.44;4929285;28;97452;-72
2023/01/12 10:47:45;;;;;;;7.78;1.10;;;;;;;13.20;54.91;100384.41;4933184;28;98988;-72
2023/01/12 10:50:21;;;;;;;8.30;1.13;;;;;;;12.93;55.68;100382.22;4936849;28;98869;-72
2023/01/12 10:52:49;;;;;;;6.70;1.30;;;;;;;12.86;56.25;100380.84;4934312;28;98364;-72
2023/01/12 10:55:18;;;;;;;6.32;1.30;;;;;;;12.90;56.36;100387.69;4938652;28;98167;-73
2023/01/12 10:57:47;;;;;;;6.53;1.20;;;;;;;12.99;56.54;100375.75;4932051;28;97711;-72
2023/01/12 11:00:20;;;;;;;6.25;0.98;;;;;;;12.97;57.58;100367.88;4933743;28;99089;-73
2023/01/12 11:02:46;;;;;;;7.93;1.20;;;;;;;13.06;57.63;100362.06;4933847;28;96724;-72
2023/01/12 11:05:29;;;;;;;8.00;1.00;;;;;;;13.00;58.69;100366.84;4938094;28;97205;-72
2023/01/12 11:07:56;;;;;;;4.70;1.10;;;;;;;13.14;58.97;100367.88;4931965;28;99583;-72
2023/01/12 11:10:28;;;;;;;8.73;1.17;;;;;;;13.02;59.19;100346.41;4934964;28;101376;-72
2023/01/12 11:12:58;;;;;;;7.65;1.10;;;;;;;12.98;59.67;100350.16;4931607;28;97596;-73
2023/01/12 11:15:26;;;;;;;10.93;1.95;;;;;;;12.83;60.97;100335.03;4933417;28;96841;-73
2023/01/12 11:18:06;;;;;;;8.45;2.08;;;;;;;12.98;60.63;100327.16;4926234;28;99594;-72
2023/01/12 11:20:38;;;;;;;5.10;1.10;;;;;;;12.97;60.54;100324.59;4929009;28;100516;-72
2023/01/12 11:23:11;;;;;;;10.65;1.48;;;;;;;12.79;61.00;100305.19;4935320;28;98155;-72
2023/01/12 11:25:42;;;;;;;8.40;1.30;;;;;;;12.60;62.34;100309.72;4936144;28;97845;-72
2023/01/12 11:28:15;;;;;;;7.35;1.30;;;;;;;12.84;62.12;100324.38;4933299;28;99313;-71
2023/01/12 11:30:50;;;;;;;6.88;1.17;;;;;;;12.90;62.50;100318.75;4935159;28;98838;-71
2023/01/12 11:33:21;;;;;;;5.90;1.08;;;;;;;12.80;61.80;100321.94;4938363;28;96792;-74
2023/01/12 11:35:52;;;;;;;13.77;2.22;;;;;;;12.66;62.82;100318.22;4937082;28;97217;-71
2023/01/12 11:38:26;;;;;;;4.95;1.40;;;;;;;12.94;62.48;100320.28;4937369;28;100298;-71
2023/01/12 11:40:57;;;;;;;6.47;1.63;;;;;;;12.88;62.22;100320.59;4937315;28;99556;-73
2023/01/12 11:43:54;;;;;;;6.85;1.73;;;;;;;12.96;62.29;100315.75;4941574;28;98268;-73
2023/01/12 11:46:27;;;;;;;6.13;1.25;;;;;;;12.86;62.43;100308.38;4934319;28;97064;-74
2023/01/12 11:49:03;;;;;;;9.73;1.40;;;;;;;12.94;62.26;100299.06;4932667;28;98994;-72
2023/01/12 11:51:30;;;;;;;5.05;1.27;;;;;;;12.88;62.25;100298.53;4930736;28;97718;-72
2023/01/12 11:53:57;;;;;;;6.32;0.88;;;;;;;12.84;62.29;100312.91;4934980;28;96800;-72
2023/01/12 11:56:43;;;;;;;6.95;1.17;;;;;;;13.00;61.95;100298.75;4937611;28;97105;-72
2023/01/12 11:59:19;;;;;;;5.50;1.17;;;;;;;13.12;61.75;100307.88;4932861;28;100480;-73
2023/01/12 12:01:55;;;;;;;6.13;1.02;;;;;;;13.19;60.91;100293.38;4933866;28;98298;-73
2023/01/12 12:04:40;;;;;;;3.78;0.70;;;;;;;12.96;60.59;100299.00;4936702;28;96901;-73
2023/01/12 12:07:34;;;;;;;6.68;1.15;;;;;;;13.09;60.57;100300.94;4938019;28;96906;-72
2023/01/12 12:10:14;;;;;;;4.90;1.23;;;;;;;12.90;61.17;100281.63;4932605;28;99076;-72
2023/01/12 12:12:50;;;;;;;3.35;0.60;;;;;;;13.16;60.19;100294.38;4934526;28;99090;-72